Lake Annette, Missouri
Current Conditions -  °F | °C
As of 6:53 AM on Wednesday 26 Nov 2014 (Local Time) from KOJC Reporting Station
Broken Clouds Broken Clouds  
Wind Chill: 31°   Ceiling: 4600
Heat Index: 36°   Visibility: 10mi
Dew Point: 34°   Wind: 6mph
Humidity: 93%   Direction: 230°SW
Pressure: 29.94"   Gusts: NA
Location:  38.6151°N, 94.4966°W
Report Text: KOJC 261253Z 23005KT 10SM BKN046 BKN065 02/01 A2994 RMK AO2 SLP145 T00220011
Loading
Personal Weather Stations






























Interactive Weather Map New forecast layout! Learn more

10-Day Weather Forecast

Advertisements
Track Severe Weather on mobile